createdAt,value
2023-04-27T00:02:13.330Z,9.10
2023-04-27T00:04:40.643Z,9.10
2023-04-27T00:07:07.688Z,9.10
2023-04-27T00:09:34.574Z,9.10
2023-04-27T00:12:01.469Z,9.10
2023-04-27T00:14:28.870Z,9.20
2023-04-27T00:16:55.772Z,9.10
2023-04-27T00:19:23.971Z,9.20
2023-04-27T00:21:50.843Z,9.20
2023-04-27T00:24:17.694Z,9.20
2023-04-27T00:26:44.627Z,9.20
2023-04-27T00:29:11.702Z,9.20
2023-04-27T00:31:38.752Z,9.10
2023-04-27T00:34:05.778Z,9.10
2023-04-27T00:36:35.380Z,9.10
2023-04-27T00:39:04.329Z,9.00
2023-04-27T00:41:31.548Z,9.10
2023-04-27T00:43:58.682Z,9.00
2023-04-27T00:46:26.291Z,9.10
2023-04-27T00:48:53.317Z,9.00
2023-04-27T00:51:20.365Z,9.00
2023-04-27T00:53:49.178Z,9.00
2023-04-27T00:56:16.401Z,9.00
2023-04-27T00:58:43.342Z,9.00
2023-04-27T01:01:10.855Z,9.00
2023-04-27T01:03:37.817Z,9.00
2023-04-27T01:06:05.707Z,8.90
2023-04-27T01:08:32.558Z,8.90
2023-04-27T01:11:00.934Z,8.80
2023-04-27T01:13:27.756Z,8.70
2023-04-27T01:15:54.581Z,8.70
2023-04-27T01:18:22.229Z,8.60
2023-04-27T01:20:49.159Z,8.60
2023-04-27T01:23:17.743Z,8.50
2023-04-27T01:25:44.972Z,8.50
2023-04-27T01:28:12.004Z,8.50
2023-04-27T01:30:38.804Z,8.50
2023-04-27T01:33:05.713Z,8.50
2023-04-27T01:35:32.623Z,8.40
2023-04-27T01:37:59.830Z,8.40
2023-04-27T01:40:28.126Z,8.40
2023-04-27T01:42:58.043Z,8.40
2023-04-27T01:45:25.032Z,8.40
2023-04-27T01:47:52.454Z,8.30
2023-04-27T01:50:19.604Z,8.30
2023-04-27T01:52:46.590Z,8.30
2023-04-27T01:55:13.564Z,8.40
2023-04-27T01:57:41.852Z,8.30
2023-04-27T02:00:09.733Z,8.30
2023-04-27T02:02:36.716Z,8.30
2023-04-27T02:05:04.392Z,8.30
2023-04-27T02:07:31.251Z,8.30
2023-04-27T02:09:58.059Z,8.30
2023-04-27T02:12:24.995Z,8.30
2023-04-27T02:14:53.156Z,8.30
2023-04-27T02:17:19.958Z,8.30
2023-04-27T02:19:46.816Z,8.30
2023-04-27T02:22:13.766Z,8.30
2023-04-27T02:24:40.587Z,8.30
2023-04-27T02:27:07.499Z,8.30
2023-04-27T02:29:38.769Z,8.30
2023-04-27T02:32:07.558Z,8.40
2023-04-27T02:34:34.446Z,8.20
2023-04-27T02:37:01.340Z,8.20
2023-04-27T02:39:28.176Z,8.10
2023-04-27T02:41:55.033Z,8.00
2023-04-27T02:44:21.874Z,8.00
2023-04-27T02:46:49.748Z,7.90
2023-04-27T02:49:17.897Z,7.80
2023-04-27T02:51:44.785Z,7.80
2023-04-27T02:54:11.663Z,7.70
2023-04-27T02:56:38.592Z,7.70
2023-04-27T02:59:05.665Z,7.60
2023-04-27T03:01:32.659Z,7.60
2023-04-27T03:03:59.658Z,7.60
2023-04-27T03:06:28.457Z,7.50
2023-04-27T03:08:55.396Z,7.50
2023-04-27T03:11:22.289Z,7.40
2023-04-27T03:13:49.178Z,7.40
2023-04-27T03:16:16.230Z,7.40
2023-04-27T03:18:43.164Z,7.40
2023-04-27T03:21:11.939Z,7.40
2023-04-27T03:23:40.303Z,7.50
2023-04-27T03:26:07.749Z,7.40
2023-04-27T03:28:34.840Z,7.40
2023-04-27T03:31:04.649Z,7.30
2023-04-27T03:33:31.512Z,7.30
2023-04-27T03:35:58.782Z,7.30
2023-04-27T03:38:26.800Z,7.30
2023-04-27T03:40:55.035Z,7.30
2023-04-27T03:43:21.996Z,7.40
2023-04-27T03:45:49.070Z,7.40
2023-04-27T03:48:16.434Z,7.40
2023-04-27T03:50:43.446Z,7.50
2023-04-27T03:53:11.442Z,7.60
2023-04-27T03:55:38.982Z,7.60
2023-04-27T03:58:07.279Z,7.70
2023-04-27T04:00:34.221Z,7.70
2023-04-27T04:03:01.431Z,7.80
2023-04-27T04:05:28.635Z,7.80
2023-04-27T04:07:56.328Z,7.80
2023-04-27T04:10:23.247Z,7.90
2023-04-27T04:12:50.085Z,7.90
2023-04-27T04:15:19.176Z,7.90
2023-04-27T04:17:47.341Z,7.90
2023-04-27T04:20:14.229Z,7.90
2023-04-27T04:22:41.015Z,8.00
2023-04-27T04:25:08.337Z,8.00
2023-04-27T04:27:35.241Z,8.00
2023-04-27T04:30:04.611Z,8.00
2023-04-27T04:32:33.650Z,8.00
2023-04-27T04:35:05.060Z,8.00
2023-04-27T04:37:34.283Z,8.10
2023-04-27T04:40:03.567Z,8.10
2023-04-27T04:42:30.356Z,8.10
2023-04-27T04:44:58.706Z,8.20
2023-04-27T04:47:25.594Z,8.10
2023-04-27T04:49:53.947Z,8.20
2023-04-27T04:52:21.260Z,8.20
2023-04-27T04:54:47.991Z,8.20
2023-04-27T04:57:14.810Z,8.20
2023-04-27T04:59:42.208Z,8.20
2023-04-27T05:02:09.012Z,8.30
2023-04-27T05:04:35.987Z,8.30
2023-04-27T05:07:06.450Z,8.40
2023-04-27T05:09:33.426Z,8.40
2023-04-27T05:12:01.965Z,8.50
2023-04-27T05:14:28.821Z,8.50
2023-04-27T05:16:55.737Z,8.60
2023-04-27T05:19:22.658Z,8.60
2023-04-27T05:21:49.474Z,8.60
2023-04-27T05:24:17.646Z,8.70
2023-04-27T05:26:44.476Z,8.80
2023-04-27T05:29:11.598Z,8.80
2023-04-27T05:31:38.855Z,8.90
2023-04-27T05:34:05.700Z,8.90
2023-04-27T05:36:32.701Z,9.00
2023-04-27T05:38:59.566Z,9.00
2023-04-27T05:41:27.913Z,9.10
2023-04-27T05:43:54.956Z,9.20
2023-04-27T05:46:21.922Z,9.30
2023-04-27T05:48:48.965Z,9.30
2023-04-27T05:51:16.585Z,9.40
2023-04-27T05:53:43.741Z,9.50
2023-04-27T05:56:12.168Z,9.60
2023-04-27T05:58:40.984Z,9.70
2023-04-27T06:01:07.957Z,9.80
2023-04-27T06:03:35.969Z,9.90
2023-04-27T06:06:03.869Z,10.10
2023-04-27T06:08:31.747Z,10.20
2023-04-27T06:10:59.294Z,10.40
2023-04-27T06:13:26.461Z,10.60
2023-04-27T06:15:55.444Z,10.70
2023-04-27T06:18:22.964Z,10.80
2023-04-27T06:20:49.843Z,11.00
2023-04-27T06:23:16.856Z,11.10
2023-04-27T06:25:44.316Z,11.20
2023-04-27T06:28:11.384Z,11.20
2023-04-27T06:30:39.837Z,11.30
2023-04-27T06:33:08.915Z,11.50
2023-04-27T06:35:35.865Z,11.40
2023-04-27T06:38:03.925Z,11.40
2023-04-27T06:40:32.522Z,11.50
2023-04-27T06:42:59.314Z,11.60
2023-04-27T06:45:26.274Z,11.70
2023-04-27T06:47:53.373Z,11.80
2023-04-27T06:50:21.632Z,11.90
2023-04-27T06:52:48.541Z,12.00
2023-04-27T06:55:15.428Z,12.00
2023-04-27T06:57:42.222Z,11.90
2023-04-27T07:00:11.658Z,12.20
2023-04-27T07:02:39.249Z,12.40
2023-04-27T07:05:06.523Z,12.60
2023-04-27T07:07:35.046Z,12.70
2023-04-27T07:10:01.959Z,12.90
2023-04-27T07:12:29.019Z,12.90
2023-04-27T07:14:56.020Z,13.10
2023-04-27T07:17:23.345Z,13.20
2023-04-27T07:19:50.454Z,13.40
2023-04-27T07:22:17.947Z,13.40
2023-04-27T07:24:46.275Z,13.50
2023-04-27T07:27:13.579Z,13.60
2023-04-27T07:29:40.849Z,13.60
2023-04-27T07:32:08.665Z,13.60
2023-04-27T07:34:49.184Z,13.60
2023-04-27T07:37:19.913Z,13.60
2023-04-27T07:39:50.092Z,13.70
2023-04-27T07:42:17.110Z,13.80
2023-04-27T07:44:44.293Z,13.90
2023-04-27T07:47:11.156Z,14.00
2023-04-27T07:49:38.220Z,14.10
2023-04-27T07:52:05.519Z,14.20
2023-04-27T07:54:32.465Z,14.30
2023-04-27T07:57:00.726Z,14.40
2023-04-27T07:59:29.661Z,14.50
2023-04-27T08:02:07.089Z,14.60
2023-04-27T08:04:43.792Z,14.60
2023-04-27T08:07:11.760Z,14.60
2023-04-27T08:09:38.913Z,14.60
2023-04-27T08:12:07.447Z,14.50
2023-04-27T08:14:35.207Z,14.50
2023-04-27T08:17:02.411Z,14.50
2023-04-27T08:19:29.372Z,14.60
2023-04-27T08:21:56.416Z,14.80
2023-04-27T08:24:23.707Z,14.90
2023-04-27T08:26:50.726Z,14.90
2023-04-27T08:29:27.194Z,14.90
2023-04-27T08:31:56.937Z,14.90
2023-04-27T08:34:24.244Z,15.00
2023-04-27T08:36:51.687Z,15.20
2023-04-27T08:39:18.653Z,15.20
2023-04-27T08:41:46.382Z,15.30
2023-04-27T08:44:13.488Z,15.20
2023-04-27T08:46:42.535Z,15.30
2023-04-27T08:49:09.919Z,15.30
2023-04-27T08:51:37.041Z,15.40
2023-04-27T08:54:04.398Z,15.50
2023-04-27T08:56:31.465Z,15.70
2023-04-27T08:59:00.733Z,15.80
2023-04-27T09:01:27.921Z,15.80
2023-04-27T09:04:03.310Z,16.00
2023-04-27T09:06:31.627Z,16.10
2023-04-27T09:08:59.637Z,16.20
2023-04-27T09:11:31.448Z,16.20
2023-04-27T09:13:59.929Z,16.30
2023-04-27T09:16:29.166Z,16.30
2023-04-27T09:18:57.332Z,16.50
2023-04-27T09:21:27.426Z,16.60
2023-04-27T09:23:55.042Z,16.80
2023-04-27T09:26:23.481Z,17.10
2023-04-27T09:28:51.858Z,17.30
2023-04-27T09:31:19.449Z,17.50
2023-04-27T09:33:54.017Z,17.50
2023-04-27T09:36:21.129Z,17.50
2023-04-27T09:38:50.328Z,17.50
2023-04-27T09:41:17.643Z,17.40
2023-04-27T09:43:46.086Z,17.40
2023-04-27T09:46:13.726Z,17.40
2023-04-27T09:48:41.073Z,17.40
2023-04-27T09:51:08.349Z,17.40
2023-04-27T09:53:39.981Z,17.40
2023-04-27T09:56:26.824Z,17.30
2023-04-27T09:59:17.338Z,17.30
2023-04-27T10:01:48.185Z,17.40
2023-04-27T10:04:59.563Z,17.40
2023-04-27T10:07:27.784Z,17.30
2023-04-27T10:09:54.642Z,17.30
2023-04-27T10:12:27.694Z,17.30
2023-04-27T10:14:56.122Z,17.40
2023-04-27T10:17:30.094Z,17.50
2023-04-27T10:19:58.759Z,17.50
2023-04-27T10:22:39.856Z,17.50
2023-04-27T10:25:22.631Z,17.70
2023-04-27T10:27:52.462Z,17.80
2023-04-27T10:30:20.403Z,18.00
2023-04-27T10:32:51.986Z,18.20
2023-04-27T10:35:20.917Z,18.50
2023-04-27T10:37:48.040Z,18.70
2023-04-27T10:40:18.858Z,18.90
2023-04-27T10:42:46.673Z,19.20
2023-04-27T10:45:15.089Z,19.20
2023-04-27T10:47:43.513Z,19.20
2023-04-27T10:50:13.324Z,19.00
2023-04-27T10:52:43.816Z,18.70
2023-04-27T10:55:17.973Z,18.70
2023-04-27T10:57:49.215Z,18.70
2023-04-27T11:00:23.939Z,18.70
2023-04-27T11:02:51.389Z,18.70
2023-04-27T11:05:19.149Z,18.80
2023-04-27T11:07:47.890Z,19.00
2023-04-27T11:10:18.957Z,19.30
2023-04-27T11:12:46.087Z,19.70
2023-04-27T11:15:14.197Z,19.90
2023-04-27T11:17:42.634Z,19.90
2023-04-27T11:20:10.409Z,19.90
2023-04-27T11:22:55.066Z,20.00
2023-04-27T11:25:27.864Z,20.20
2023-04-27T11:27:54.686Z,20.20
2023-04-27T11:30:22.535Z,20.40
2023-04-27T11:32:51.301Z,20.70
2023-04-27T11:35:18.598Z,20.90
2023-04-27T11:37:56.115Z,21.00
2023-04-27T11:40:24.572Z,21.00
2023-04-27T11:42:58.133Z,21.10
2023-04-27T11:45:26.325Z,21.10
2023-04-27T11:47:54.777Z,21.30
2023-04-27T11:50:25.669Z,21.60
2023-04-27T11:52:53.436Z,22.10
2023-04-27T11:55:24.598Z,22.50
2023-04-27T11:57:58.257Z,22.80
2023-04-27T12:00:25.555Z,23.00
2023-04-27T12:02:53.932Z,23.10
2023-04-27T12:05:21.626Z,23.20
2023-04-27T12:07:48.746Z,23.30
2023-04-27T12:10:15.760Z,23.10
2023-04-27T12:12:42.834Z,22.80
2023-04-27T12:15:10.963Z,22.70
2023-04-27T12:17:38.549Z,22.80
2023-04-27T12:20:08.801Z,22.90
2023-04-27T12:22:35.721Z,22.80
2023-04-27T12:25:02.764Z,22.80
2023-04-27T12:27:29.669Z,22.80
2023-04-27T12:29:59.287Z,22.90
2023-04-27T12:32:27.426Z,23.00
2023-04-27T12:34:54.249Z,23.10
2023-04-27T12:37:23.495Z,23.20
2023-04-27T12:39:51.217Z,23.30
2023-04-27T12:42:23.497Z,23.20
2023-04-27T12:44:51.100Z,23.10
2023-04-27T12:47:34.612Z,23.00
2023-04-27T12:50:06.395Z,22.90
2023-04-27T12:52:34.933Z,22.80
2023-04-27T12:55:01.870Z,22.40
2023-04-27T12:57:28.686Z,22.10
2023-04-27T12:59:56.283Z,22.00
2023-04-27T13:02:23.471Z,22.00
2023-04-27T13:04:51.290Z,21.90
2023-04-27T13:07:18.293Z,21.90
2023-04-27T13:09:46.552Z,21.90
2023-04-27T13:12:15.016Z,21.90
2023-04-27T13:14:43.179Z,21.90
2023-04-27T13:17:10.008Z,21.90
2023-04-27T13:19:36.856Z,21.80
2023-04-27T13:22:04.347Z,21.80
2023-04-27T13:24:31.759Z,21.80
2023-04-27T13:26:59.901Z,21.80
2023-04-27T13:29:26.783Z,21.90
2023-04-27T13:31:53.663Z,22.00
2023-04-27T13:34:20.578Z,22.00
2023-04-27T13:36:49.451Z,22.10
2023-04-27T13:39:17.285Z,22.10
2023-04-27T13:41:44.225Z,22.00
2023-04-27T13:44:12.675Z,22.00
2023-04-27T13:46:39.697Z,21.90
2023-04-27T13:49:07.272Z,21.90
2023-04-27T13:51:36.017Z,21.90
2023-04-27T13:54:03.398Z,21.90
2023-04-27T13:56:30.831Z,21.90
2023-04-27T13:58:57.746Z,21.80
2023-04-27T14:01:27.198Z,21.80
2023-04-27T14:03:54.380Z,21.80
2023-04-27T14:06:21.382Z,21.80
2023-04-27T14:08:48.219Z,21.80
2023-04-27T14:11:15.341Z,21.70
2023-04-27T14:13:42.140Z,21.60
2023-04-27T14:16:09.063Z,21.60
2023-04-27T14:18:37.733Z,21.60
2023-04-27T14:21:05.027Z,21.50
2023-04-27T14:23:31.906Z,21.50
2023-04-27T14:25:58.947Z,21.50
2023-04-27T14:28:26.006Z,21.50
2023-04-27T14:30:52.892Z,21.50
2023-04-27T14:33:19.820Z,21.50
2023-04-27T14:35:48.054Z,21.40
2023-04-27T14:38:14.913Z,21.20
2023-04-27T14:40:41.811Z,21.10
2023-04-27T14:43:08.693Z,21.10
2023-04-27T14:45:47.707Z,21.20
2023-04-27T14:48:15.651Z,21.10
2023-04-27T14:50:42.617Z,20.90
2023-04-27T14:53:10.805Z,20.80
2023-04-27T14:55:37.853Z,20.70
2023-04-27T14:58:04.697Z,20.40
2023-04-27T15:00:31.514Z,20.30
2023-04-27T15:02:58.433Z,20.20
2023-04-27T15:05:25.594Z,20.10
2023-04-27T15:07:52.964Z,20.20
2023-04-27T15:10:21.153Z,20.30
2023-04-27T15:12:48.123Z,20.40
2023-04-27T15:15:15.192Z,20.50
2023-04-27T15:17:42.111Z,20.40
2023-04-27T15:20:10.779Z,20.20
2023-04-27T15:22:37.596Z,20.00
2023-04-27T15:25:05.121Z,19.80
2023-04-27T15:27:33.382Z,19.80
2023-04-27T15:30:00.350Z,19.80
2023-04-27T15:32:30.285Z,19.80
2023-04-27T15:34:57.894Z,19.80
2023-04-27T15:37:25.019Z,19.70
2023-04-27T15:39:51.904Z,19.60
2023-04-27T15:42:18.751Z,19.50
2023-04-27T15:44:46.979Z,19.40
2023-04-27T15:47:14.518Z,19.30
2023-04-27T15:49:53.668Z,19.20
2023-04-27T15:52:23.492Z,19.10
2023-04-27T15:54:50.323Z,19.10
2023-04-27T15:57:18.363Z,19.10
2023-04-27T15:59:46.708Z,19.20
2023-04-27T16:02:13.658Z,19.30
2023-04-27T16:04:40.636Z,19.30
2023-04-27T16:07:08.008Z,19.20
2023-04-27T16:09:34.896Z,19.10
2023-04-27T16:12:03.641Z,19.00
2023-04-27T16:14:30.792Z,18.90
2023-04-27T16:17:02.436Z,18.90
2023-04-27T16:19:29.531Z,18.80
2023-04-27T16:21:56.351Z,18.70
2023-04-27T16:24:25.876Z,18.70
2023-04-27T16:26:52.766Z,18.60
2023-04-27T16:29:19.618Z,18.70
2023-04-27T16:31:49.715Z,18.70
2023-04-27T16:34:17.926Z,18.60
2023-04-27T16:36:46.633Z,18.60
2023-04-27T16:39:13.989Z,18.50
2023-04-27T16:41:41.124Z,18.40
2023-04-27T16:44:07.995Z,18.10
2023-04-27T16:46:34.949Z,18.20
2023-04-27T16:49:02.091Z,18.20
2023-04-27T16:51:30.604Z,18.20
2023-04-27T16:53:58.094Z,18.20
2023-04-27T16:56:29.592Z,18.20
2023-04-27T16:58:56.818Z,18.20
2023-04-27T17:01:29.815Z,18.20
2023-04-27T17:03:57.786Z,18.20
2023-04-27T17:06:25.962Z,18.30
2023-04-27T17:08:54.185Z,18.40
2023-04-27T17:11:21.401Z,18.40
2023-04-27T17:13:49.662Z,18.50
2023-04-27T17:16:17.264Z,18.50
2023-04-27T17:18:44.525Z,18.50
2023-04-27T17:21:11.961Z,18.50
2023-04-27T17:23:41.293Z,18.50
2023-04-27T17:26:09.991Z,18.50
2023-04-27T17:28:36.799Z,18.40
2023-04-27T17:31:03.869Z,18.40
2023-04-27T17:33:30.895Z,18.30
2023-04-27T17:35:57.861Z,18.20
2023-04-27T17:38:24.707Z,18.20
2023-04-27T17:40:51.561Z,18.10
2023-04-27T17:43:19.778Z,18.10
2023-04-27T17:45:46.603Z,18.10
2023-04-27T17:48:13.624Z,18.00
2023-04-27T17:50:41.481Z,18.00
2023-04-27T17:53:08.343Z,18.00
2023-04-27T17:55:35.232Z,17.90
2023-04-27T17:58:03.944Z,17.80
2023-04-27T18:00:32.653Z,17.80
2023-04-27T18:02:59.741Z,17.80
2023-04-27T18:05:26.770Z,17.70
2023-04-27T18:07:53.621Z,17.70
2023-04-27T18:10:20.862Z,17.70
2023-04-27T18:12:47.745Z,17.70
2023-04-27T18:15:14.577Z,17.70
2023-04-27T18:17:42.828Z,17.70
2023-04-27T18:20:10.919Z,17.70
2023-04-27T18:22:39.284Z,17.70
2023-04-27T18:25:07.464Z,17.70
2023-04-27T18:27:37.160Z,17.70
2023-04-27T18:30:04.680Z,17.70
2023-04-27T18:32:31.675Z,17.60
2023-04-27T18:35:02.452Z,17.60
2023-04-27T18:37:29.438Z,17.60
2023-04-27T18:39:56.510Z,17.60
2023-04-27T18:42:23.758Z,17.50
2023-04-27T18:44:52.054Z,17.50
2023-04-27T18:47:18.955Z,17.40
2023-04-27T18:49:45.852Z,17.40
2023-04-27T18:52:14.011Z,17.30
2023-04-27T18:54:41.151Z,17.20
2023-04-27T18:57:08.238Z,17.10
2023-04-27T18:59:36.890Z,17.00
2023-04-27T19:02:03.776Z,16.90
2023-04-27T19:04:31.260Z,16.90
2023-04-27T19:06:58.350Z,16.80
2023-04-27T19:09:27.383Z,16.80
2023-04-27T19:12:02.310Z,16.70
2023-04-27T19:14:30.830Z,16.70
2023-04-27T19:16:57.940Z,16.60
2023-04-27T19:19:26.919Z,16.60
2023-04-27T19:21:54.109Z,16.50
2023-04-27T19:24:21.378Z,16.50
2023-04-27T19:26:51.405Z,16.50
2023-04-27T19:29:22.424Z,16.40
2023-04-27T19:31:49.661Z,16.40
2023-04-27T19:34:16.491Z,16.40
2023-04-27T19:36:43.348Z,16.40
2023-04-27T19:39:10.229Z,16.40
2023-04-27T19:41:37.263Z,16.30
2023-04-27T19:44:05.581Z,16.30
2023-04-27T19:46:32.499Z,16.30
2023-04-27T19:49:00.903Z,16.20
2023-04-27T19:51:29.273Z,16.20
2023-04-27T19:53:56.175Z,16.20
2023-04-27T19:56:23.080Z,16.20
2023-04-27T19:58:49.948Z,16.10
2023-04-27T20:01:18.209Z,16.10
2023-04-27T20:03:45.494Z,16.10
2023-04-27T20:06:12.713Z,16.00
2023-04-27T20:08:39.623Z,16.00
2023-04-27T20:11:06.586Z,16.00
2023-04-27T20:13:33.670Z,16.00
2023-04-27T20:16:00.523Z,16.00
2023-04-27T20:18:31.864Z,16.00
2023-04-27T20:21:01.959Z,15.90
2023-04-27T20:23:29.192Z,15.90
2023-04-27T20:25:56.145Z,15.90
2023-04-27T20:28:23.180Z,15.90
2023-04-27T20:30:50.418Z,15.80
2023-04-27T20:33:17.701Z,15.80
2023-04-27T20:35:46.872Z,15.80
2023-04-27T20:38:13.938Z,15.80
2023-04-27T20:40:42.032Z,15.70
2023-04-27T20:43:09.056Z,15.70
2023-04-27T20:45:36.496Z,15.70
2023-04-27T20:48:03.730Z,15.70
2023-04-27T20:50:31.063Z,15.70
2023-04-27T20:52:59.621Z,15.60
2023-04-27T20:55:26.969Z,15.60
2023-04-27T20:57:54.297Z,15.60
2023-04-27T21:00:21.387Z,15.60
2023-04-27T21:02:48.509Z,15.50
2023-04-27T21:05:15.560Z,15.50
2023-04-27T21:07:42.456Z,15.50
2023-04-27T21:10:12.709Z,15.50
2023-04-27T21:12:40.007Z,15.40
2023-04-27T21:15:08.237Z,15.40
2023-04-27T21:17:35.121Z,15.40
2023-04-27T21:20:01.967Z,15.50
2023-04-27T21:22:28.954Z,15.40
2023-04-27T21:24:56.007Z,15.50
2023-04-27T21:27:25.087Z,15.40
2023-04-27T21:29:51.977Z,15.40
2023-04-27T21:32:18.934Z,15.40
2023-04-27T21:34:45.866Z,15.40
2023-04-27T21:37:12.680Z,15.40
2023-04-27T21:39:39.473Z,15.40
2023-04-27T21:42:06.435Z,15.40
2023-04-27T21:44:34.645Z,15.30
2023-04-27T21:47:01.993Z,15.30
2023-04-27T21:49:28.835Z,15.30
2023-04-27T21:51:55.712Z,15.30
2023-04-27T21:54:22.532Z,15.30
2023-04-27T21:56:49.396Z,15.30
2023-04-27T21:59:16.330Z,15.30
2023-04-27T22:01:45.129Z,15.30
2023-04-27T22:04:12.466Z,15.30
2023-04-27T22:06:39.850Z,15.30
2023-04-27T22:09:08.100Z,15.30
2023-04-27T22:11:35.262Z,15.30
2023-04-27T22:14:04.067Z,15.30
2023-04-27T22:16:30.955Z,15.20
2023-04-27T22:18:59.758Z,15.20
2023-04-27T22:21:28.804Z,15.20
2023-04-27T22:23:55.770Z,15.10
2023-04-27T22:26:22.769Z,15.10
2023-04-27T22:28:49.590Z,15.10
2023-04-27T22:31:16.735Z,15.20
2023-04-27T22:33:43.626Z,15.20
2023-04-27T22:36:12.133Z,15.20
2023-04-27T22:38:39.076Z,15.10
2023-04-27T22:41:05.999Z,15.20
2023-04-27T22:43:32.880Z,15.10
2023-04-27T22:45:59.686Z,15.10
2023-04-27T22:48:26.683Z,15.10
2023-04-27T22:50:53.451Z,15.10
2023-04-27T22:53:23.903Z,15.10
2023-04-27T22:55:51.012Z,15.10
2023-04-27T22:58:18.294Z,15.10
2023-04-27T23:00:45.194Z,15.10
2023-04-27T23:03:12.998Z,14.90
2023-04-27T23:05:40.015Z,15.10
2023-04-27T23:08:06.811Z,15.10
2023-04-27T23:10:38.632Z,15.10
2023-04-27T23:13:05.571Z,15.10
2023-04-27T23:15:32.390Z,15.10
2023-04-27T23:17:59.328Z,15.10
2023-04-27T23:20:28.654Z,15.10
2023-04-27T23:22:56.291Z,15.00
2023-04-27T23:25:23.240Z,15.00
2023-04-27T23:27:52.530Z,15.00
2023-04-27T23:30:20.211Z,15.00
2023-04-27T23:32:47.077Z,15.00
2023-04-27T23:35:13.899Z,15.00
2023-04-27T23:37:40.738Z,15.00
2023-04-27T23:40:08.557Z,15.00
2023-04-27T23:42:35.479Z,15.00
2023-04-27T23:45:04.971Z,14.90
2023-04-27T23:47:33.670Z,14.90
2023-04-27T23:50:02.046Z,14.90
2023-04-27T23:52:29.439Z,14.90
2023-04-27T23:54:57.556Z,14.90
2023-04-27T23:57:24.441Z,14.90
2023-04-27T23:59:51.210Z,14.90
